Time;durP1;ratioP1;P1;durP2;ratioP2;P2;SDS_P1;SDS_P2;PMS_P1;PMS_P2;Temp;Humidity;BMP_temperature;BMP_pressure;BME280_temperature;BME280_humidity;BME280_pressure;Samples;Min_cycle;Max_cycle;Signal;HPM_P1;HPM_P2
2024/03/17 00:01:57;;;;;;;2.55;1.23;;;14.50;99.40;;;;;;4134467;28;20061;-56
2024/03/17 00:04:01;;;;;;;1.05;0.68;;;14.50;99.60;;;;;;4133473;28;20081;-53
2024/03/17 00:06:02;;;;;;;2.73;1.63;;;14.40;99.60;;;;;;4132167;28;20054;-53
2024/03/17 00:08:08;;;;;;;1.02;0.52;;;14.40;99.60;;;;;;4131782;28;20046;-54
2024/03/17 00:10:10;;;;;;;1.40;0.70;;;14.40;99.90;;;;;;4131892;28;20050;-52
2024/03/17 00:12:11;;;;;;;4.80;1.63;;;14.30;99.70;;;;;;4131878;28;20423;-52
2024/03/17 00:14:12;;;;;;;3.28;1.23;;;14.30;99.70;;;;;;4115847;28;20046;-53
2024/03/17 00:16:13;;;;;;;2.28;1.45;;;14.30;99.70;;;;;;4132932;28;20055;-54
2024/03/17 00:18:14;;;;;;;5.32;1.42;;;14.20;99.90;;;;;;4132775;28;20132;-55
2024/03/17 00:20:20;;;;;;;0.93;0.65;;;14.20;99.90;;;;;;4132757;28;20069;-54
2024/03/17 00:22:21;;;;;;;1.83;0.90;;;14.20;99.90;;;;;;4116808;28;20395;-55
2024/03/17 00:24:23;;;;;;;0.55;0.40;;;14.10;99.90;;;;;;4134123;28;20042;-53
2024/03/17 00:26:28;;;;;;;0.70;0.43;;;14.10;99.90;;;;;;4134378;28;20046;-57
2024/03/17 00:28:30;;;;;;;0.70;0.70;;;14.10;99.90;;;;;;4134279;28;20046;-56
2024/03/17 00:30:31;;;;;;;0.90;0.50;;;14.10;99.90;;;;;;4132693;28;20410;-54
2024/03/17 00:32:32;;;;;;;1.25;0.55;;;14.00;99.90;;;;;;4132373;28;20046;-52
2024/03/17 00:34:33;;;;;;;8.50;2.45;;;14.00;99.90;;;;;;4131832;28;20050;-53
2024/03/17 00:36:36;;;;;;;4.35;0.82;;;13.90;99.90;;;;;;4131343;28;20108;-53
2024/03/17 00:38:37;;;;;;;1.02;0.50;;;13.90;99.90;;;;;;4131021;28;20050;-54
2024/03/17 00:40:40;;;;;;;2.10;0.70;;;13.90;99.90;;;;;;4131496;28;20046;-52
2024/03/17 00:42:42;;;;;;;4.90;0.50;;;13.90;99.90;;;;;;4116959;28;20042;-56
2024/03/17 00:44:44;;;;;;;1.48;0.90;;;13.80;99.90;;;;;;4133299;28;20416;-52
2024/03/17 00:46:45;;;;;;;2.20;0.65;;;13.80;99.90;;;;;;4131044;28;20054;-53
2024/03/17 00:48:48;;;;;;;1.30;1.20;;;13.80;99.90;;;;;;4131515;28;20054;-53
2024/03/17 00:50:55;;;;;;;1.30;0.60;;;13.80;99.90;;;;;;4115555;28;20063;-53
2024/03/17 00:52:57;;;;;;;0.68;0.50;;;13.80;99.90;;;;;;4132522;28;20054;-54
2024/03/17 00:55:00;;;;;;;1.05;0.77;;;13.80;99.90;;;;;;4131901;28;20088;-53
2024/03/17 00:57:01;;;;;;;0.68;0.60;;;13.80;99.90;;;;;;4115399;28;20055;-54
2024/03/17 00:59:03;;;;;;;2.17;0.95;;;13.80;99.90;;;;;;4131183;28;20422;-53
2024/03/17 01:01:04;;;;;;;0.80;0.80;;;13.80;99.90;;;;;;4130967;28;20105;-53
2024/03/17 01:03:05;;;;;;;1.38;0.75;;;13.70;99.90;;;;;;4130951;28;20050;-54
2024/03/17 01:05:07;;;;;;;3.28;1.30;;;13.70;99.90;;;;;;4131111;28;20089;-54
2024/03/17 01:07:08;;;;;;;0.95;0.50;;;13.70;99.90;;;;;;4130990;28;20043;-53
2024/03/17 01:09:10;;;;;;;1.85;0.60;;;13.60;99.90;;;;;;4130851;28;20477;-56
2024/03/17 01:11:14;;;;;;;3.17;1.15;;;13.60;99.90;;;;;;4114750;28;20131;-54
2024/03/17 01:13:16;;;;;;;3.58;1.25;;;13.60;99.90;;;;;;4130977;28;20441;-59
2024/03/17 01:15:17;;;;;;;1.55;0.82;;;13.70;99.90;;;;;;4131757;28;20097;-54
2024/03/17 01:17:19;;;;;;;0.52;0.38;;;13.70;99.90;;;;;;4132035;28;20061;-55
2024/03/17 01:19:20;;;;;;;3.40;0.70;;;13.70;99.90;;;;;;4131707;28;20157;-54
2024/03/17 01:21:23;;;;;;;2.30;0.75;;;13.70;99.90;;;;;;4130879;28;20141;-53
2024/03/17 01:23:24;;;;;;;1.77;1.00;;;13.70;99.90;;;;;;4130777;28;20054;-53
2024/03/17 01:25:27;;;;;;;4.40;2.10;;;13.70;99.90;;;;;;4114725;28;20047;-53
2024/03/17 01:27:28;;;;;;;5.10;0.77;;;13.70;99.90;;;;;;4130931;28;20046;-53
2024/03/17 01:29:30;;;;;;;0.68;0.60;;;13.70;99.90;;;;;;4130863;28;20433;-56
2024/03/17 01:31:31;;;;;;;0.85;0.52;;;13.70;99.90;;;;;;4131225;28;20124;-55
2024/03/17 01:33:32;;;;;;;1.60;0.88;;;13.70;99.90;;;;;;4131877;28;20482;-53
2024/03/17 01:35:34;;;;;;;0.50;0.50;;;13.60;99.90;;;;;;4132064;28;20413;-56
2024/03/17 01:37:35;;;;;;;1.13;0.73;;;13.60;99.90;;;;;;4131424;28;20486;-56
2024/03/17 01:39:37;;;;;;;0.95;0.60;;;13.70;99.90;;;;;;4131786;28;20073;-54
2024/03/17 01:41:40;;;;;;;1.75;0.88;;;13.60;99.90;;;;;;4132313;28;20444;-53
2024/03/17 01:43:41;;;;;;;2.22;1.52;;;13.60;99.90;;;;;;4131437;28;20053;-61
2024/03/17 01:45:43;;;;;;;2.55;0.68;;;13.60;99.90;;;;;;4131314;28;20101;-53
2024/03/17 01:47:44;;;;;;;4.05;1.27;;;13.60;99.90;;;;;;4131225;28;20065;-54
2024/03/17 01:49:47;;;;;;;2.35;1.73;;;13.60;99.90;;;;;;4130648;28;20061;-52
2024/03/17 01:51:50;;;;;;;1.15;0.68;;;13.60;99.90;;;;;;4130513;28;20073;-53
2024/03/17 01:53:51;;;;;;;2.63;0.60;;;13.60;99.90;;;;;;4130917;28;20050;-53
2024/03/17 01:55:56;;;;;;;0.90;0.50;;;13.60;99.90;;;;;;4130887;28;20050;-53
2024/03/17 01:57:59;;;;;;;;;;;13.60;99.90;;;;;;4131665;28;20055;-53
2024/03/17 02:00:01;;;;;;;0.80;0.68;;;13.50;99.90;;;;;;4134028;28;19936;-53
2024/03/17 02:02:03;;;;;;;1.30;0.60;;;13.50;99.90;;;;;;4134896;28;20050;-55
2024/03/17 02:04:06;;;;;;;0.63;0.50;;;13.50;99.90;;;;;;4134882;28;20465;-53
2024/03/17 02:06:09;;;;;;;4.63;0.60;;;13.50;99.90;;;;;;4133600;28;20042;-56
2024/03/17 02:08:11;;;;;;;0.88;0.38;;;13.50;99.90;;;;;;4134145;28;20456;-54
2024/03/17 02:10:12;;;;;;;2.72;0.70;;;13.50;99.90;;;;;;4134619;28;20046;-53
2024/03/17 02:12:13;;;;;;;0.88;0.70;;;13.50;99.90;;;;;;4134312;28;20529;-54
2024/03/17 02:14:17;;;;;;;0.85;0.55;;;13.50;99.90;;;;;;4133713;28;20038;-54
2024/03/17 02:16:19;;;;;;;0.70;0.60;;;13.50;99.90;;;;;;4133484;28;20058;-53
2024/03/17 02:18:20;;;;;;;1.38;0.80;;;13.50;99.90;;;;;;4133334;28;20453;-55
2024/03/17 02:20:54;;;;;;;1.45;0.80;;;13.40;99.90;;;;;;4133165;28;20050;-58
2024/03/17 02:22:44;;;;;;;1.40;0.50;;;13.40;99.90;;;;;;4133128;28;20042;-56
2024/03/17 02:24:46;;;;;;;0.50;0.50;;;13.40;99.90;;;;;;4133544;28;20100;-57
2024/03/17 02:26:47;;;;;;;1.25;1.15;;;13.40;99.90;;;;;;4133415;28;20271;-55
2024/03/17 02:28:48;;;;;;;2.40;1.15;;;13.40;99.90;;;;;;4135264;28;20050;-58
2024/03/17 02:30:51;;;;;;;1.77;0.90;;;13.40;99.90;;;;;;4135314;28;20050;-54
2024/03/17 02:32:52;;;;;;;3.75;1.00;;;13.30;99.90;;;;;;4133999;28;20105;-53
2024/03/17 02:34:54;;;;;;;1.00;0.60;;;13.30;99.90;;;;;;4133130;28;20046;-53
2024/03/17 02:36:55;;;;;;;2.25;1.33;;;13.40;99.90;;;;;;4133054;28;20050;-52
2024/03/17 02:41:18;;;;;;;1.50;0.52;;;13.40;99.90;;;;;;4133148;28;20481;-52
2024/03/17 02:43:20;;;;;;;1.45;0.73;;;13.40;99.90;;;;;;4133496;28;20050;-52
2024/03/17 02:45:21;;;;;;;2.10;1.15;;;13.40;99.90;;;;;;4133144;28;20054;-53
2024/03/17 02:47:22;;;;;;;0.52;0.35;;;13.40;99.90;;;;;;4132908;28;20142;-53
2024/03/17 02:49:23;;;;;;;0.50;0.40;;;13.50;99.90;;;;;;4132844;28;20046;-53
2024/03/17 02:51:24;;;;;;;3.85;0.60;;;13.50;99.90;;;;;;4133307;28;20057;-53
2024/03/17 02:53:25;;;;;;;3.25;0.68;;;13.40;99.90;;;;;;4133458;28;20431;-53
2024/03/17 02:55:29;;;;;;;1.25;0.50;;;13.50;99.90;;;;;;4134006;28;20395;-53
2024/03/17 02:57:32;;;;;;;0.90;0.55;;;13.50;99.90;;;;;;4133652;28;20070;-52
2024/03/17 02:59:33;;;;;;;0.93;0.45;;;13.40;99.90;;;;;;4134123;28;20057;-56
2024/03/17 03:01:34;;;;;;;0.50;0.30;;;13.40;99.90;;;;;;4133286;28;20450;-53
2024/03/17 03:03:36;;;;;;;3.80;1.65;;;13.30;99.90;;;;;;4132892;28;20046;-53
2024/03/17 03:05:40;;;;;;;1.20;0.80;;;13.30;99.90;;;;;;4133239;28;20050;-53
2024/03/17 03:07:41;;;;;;;0.75;0.50;;;13.40;99.90;;;;;;4133023;28;20053;-55
2024/03/17 03:09:42;;;;;;;0.52;0.40;;;13.30;99.90;;;;;;4132677;28;20050;-52
2024/03/17 03:11:44;;;;;;;1.38;0.88;;;13.30;99.90;;;;;;4132898;28;20513;-52
2024/03/17 03:13:46;;;;;;;1.45;0.55;;;13.30;99.90;;;;;;4133064;28;20042;-53
2024/03/17 03:15:47;;;;;;;2.03;0.90;;;13.30;99.90;;;;;;4132899;28;20046;-53
2024/03/17 03:17:48;;;;;;;0.85;0.77;;;13.20;99.90;;;;;;4132472;28;20047;-54
2024/03/17 03:19:50;;;;;;;0.43;0.40;;;13.20;99.90;;;;;;4132105;28;20046;-52
2024/03/17 03:21:51;;;;;;;1.17;0.70;;;13.10;99.90;;;;;;4132716;28;20516;-52
2024/03/17 03:23:52;;;;;;;1.48;1.05;;;13.10;99.90;;;;;;4132476;28;20050;-52
2024/03/17 03:25:55;;;;;;;1.25;0.43;;;13.10;99.90;;;;;;4132809;28;20410;-53
2024/03/17 03:27:59;;;;;;;1.33;0.82;;;13.00;99.90;;;;;;4132651;28;20050;-53
2024/03/17 03:30:00;;;;;;;2.00;0.63;;;13.10;99.90;;;;;;4133457;28;20047;-55
2024/03/17 03:32:02;;;;;;;1.83;0.65;;;13.00;99.90;;;;;;4134504;28;20105;-55
2024/03/17 03:34:03;;;;;;;2.78;1.08;;;13.10;99.90;;;;;;4133037;28;20408;-53
2024/03/17 03:36:08;;;;;;;4.82;1.10;;;13.00;99.90;;;;;;4116755;28;20054;-54
2024/03/17 03:38:11;;;;;;;1.75;0.90;;;13.00;99.90;;;;;;4134260;28;20043;-57
2024/03/17 03:40:16;;;;;;;1.50;0.47;;;13.10;99.90;;;;;;4135136;28;20062;-55
2024/03/17 03:42:17;;;;;;;;;;;13.10;99.90;;;;;;4135547;28;20050;-57
2024/03/17 03:44:19;;;;;;;1.30;0.50;;;13.10;99.90;;;;;;4133516;28;19926;-51
2024/03/17 03:46:20;;;;;;;0.30;0.28;;;13.00;99.90;;;;;;4133011;28;20539;-51
2024/03/17 03:48:22;;;;;;;0.82;0.60;;;13.10;99.90;;;;;;4116994;28;20055;-52
2024/03/17 03:50:23;;;;;;;2.75;0.50;;;13.10;99.90;;;;;;4132581;28;20054;-52
2024/03/17 03:52:24;;;;;;;0.40;0.38;;;13.10;99.90;;;;;;4132104;28;20053;-51
2024/03/17 03:54:25;;;;;;;0.60;0.60;;;13.20;99.90;;;;;;4132075;28;20053;-52
2024/03/17 03:56:27;;;;;;;1.75;0.70;;;13.10;99.90;;;;;;4115524;28;20046;-52
2024/03/17 03:58:31;;;;;;;1.77;1.40;;;13.10;99.90;;;;;;4132227;28;20111;-51
2024/03/17 04:00:34;;;;;;;0.85;0.68;;;13.10;99.90;;;;;;4132028;28;20050;-51
2024/03/17 04:02:36;;;;;;;1.23;0.63;;;13.20;99.90;;;;;;4131100;28;20050;-52
2024/03/17 04:04:37;;;;;;;0.98;0.50;;;13.10;99.90;;;;;;4132049;28;20125;-53
2024/03/17 04:06:38;;;;;;;0.32;0.32;;;13.10;99.90;;;;;;4132027;28;20486;-52
2024/03/17 04:08:41;;;;;;;1.10;0.50;;;13.20;99.90;;;;;;4132063;28;20050;-51
2024/03/17 04:10:43;;;;;;;1.85;1.05;;;13.20;99.90;;;;;;4132122;28;20137;-51
2024/03/17 04:12:45;;;;;;;2.97;0.75;;;13.30;99.90;;;;;;4132158;28;20485;-52
2024/03/17 04:14:46;;;;;;;2.97;0.60;;;13.20;99.90;;;;;;4133731;28;20055;-53
2024/03/17 04:16:49;;;;;;;0.47;0.43;;;13.20;99.90;;;;;;4132465;28;20046;-53
2024/03/17 04:18:50;;;;;;;1.30;0.52;;;13.20;99.90;;;;;;4131942;28;20104;-52
2024/03/17 04:20:52;;;;;;;1.25;0.65;;;13.20;99.90;;;;;;4131712;28;20494;-53
2024/03/17 04:22:53;;;;;;;1.60;0.50;;;13.20;99.90;;;;;;4132361;28;20049;-53
2024/03/17 04:24:56;;;;;;;1.35;0.70;;;13.20;99.90;;;;;;4132310;28;20402;-52
2024/03/17 04:26:57;;;;;;;0.73;0.57;;;13.20;99.90;;;;;;4132864;28;20043;-52
2024/03/17 04:28:58;;;;;;;2.33;0.70;;;13.20;99.90;;;;;;4132287;28;20490;-54
2024/03/17 04:31:04;;;;;;;0.93;0.40;;;13.20;99.90;;;;;;4131750;28;20489;-53
2024/03/17 04:33:07;;;;;;;2.50;0.43;;;13.30;99.90;;;;;;4132097;28;20046;-53
2024/03/17 04:35:09;;;;;;;0.20;0.20;;;13.20;99.90;;;;;;4132243;28;20458;-51
2024/03/17 04:37:12;;;;;;;1.75;0.68;;;13.30;99.90;;;;;;4115375;28;20047;-51
2024/03/17 04:39:13;;;;;;;0.65;0.52;;;13.30;99.90;;;;;;4131513;28;20382;-52
2024/03/17 04:41:16;;;;;;;0.70;0.63;;;13.30;99.90;;;;;;4131149;28;20142;-51
2024/03/17 04:43:18;;;;;;;0.80;0.50;;;13.20;99.90;;;;;;4131311;28;20054;-52
2024/03/17 04:45:19;;;;;;;1.13;0.52;;;13.20;99.90;;;;;;4131177;28;20166;-52
2024/03/17 04:47:20;;;;;;;1.45;0.60;;;13.20;99.90;;;;;;4115161;28;20101;-51
2024/03/17 04:49:23;;;;;;;0.22;0.22;;;13.20;99.90;;;;;;4130971;28;20050;-51
2024/03/17 04:51:24;;;;;;;1.00;0.47;;;13.20;99.90;;;;;;4131255;28;20061;-52
2024/03/17 04:53:26;;;;;;;0.45;0.40;;;13.20;99.90;;;;;;4131096;28;20042;-53
2024/03/17 04:55:28;;;;;;;0.75;0.47;;;13.20;99.90;;;;;;4131021;28;20058;-51
2024/03/17 04:57:29;;;;;;;0.68;0.55;;;13.30;99.90;;;;;;4131287;28;20053;-53
2024/03/17 04:59:35;;;;;;;0.43;0.30;;;13.20;99.90;;;;;;4131007;28;20053;-52
2024/03/17 05:01:38;;;;;;;2.50;0.50;;;13.30;99.90;;;;;;4130841;28;20487;-52
2024/03/17 05:03:39;;;;;;;2.25;0.68;;;13.30;99.90;;;;;;4130544;28;20497;-52
2024/03/17 05:05:42;;;;;;;1.15;0.63;;;13.30;99.90;;;;;;4115148;28;20046;-52
2024/03/17 05:07:43;;;;;;;0.88;0.47;;;13.30;99.90;;;;;;4130936;28;20093;-52
2024/03/17 05:09:44;;;;;;;0.68;0.68;;;13.20;99.90;;;;;;4130822;28;20042;-53
2024/03/17 05:11:47;;;;;;;1.30;1.20;;;13.20;99.90;;;;;;4130779;28;20046;-52
2024/03/17 05:13:49;;;;;;;1.00;0.60;;;13.30;99.90;;;;;;4130881;28;20437;-52
2024/03/17 05:15:50;;;;;;;3.85;0.50;;;13.30;99.90;;;;;;4130703;28;20061;-52
2024/03/17 05:17:51;;;;;;;1.25;0.50;;;13.30;99.90;;;;;;4130807;28;20058;-53
2024/03/17 05:19:53;;;;;;;0.85;0.65;;;13.30;99.90;;;;;;4131054;28;20042;-57
2024/03/17 05:21:55;;;;;;;1.25;0.40;;;13.30;99.90;;;;;;4131582;28;20065;-52
2024/03/17 05:23:59;;;;;;;1.42;0.85;;;13.40;99.90;;;;;;4131603;28;20478;-53
2024/03/17 05:26:01;;;;;;;1.17;0.40;;;13.30;99.90;;;;;;4131163;28;20406;-55
2024/03/17 05:28:02;;;;;;;0.75;0.40;;;13.30;99.90;;;;;;4115044;28;20407;-55
2024/03/17 05:30:08;;;;;;;1.52;0.57;;;13.40;99.90;;;;;;4130751;28;20046;-53
2024/03/17 05:32:09;;;;;;;2.20;0.52;;;13.30;99.90;;;;;;4130713;28;20548;-58
2024/03/17 05:34:12;;;;;;;0.88;0.50;;;13.30;99.90;;;;;;4114710;28;20046;-53
2024/03/17 05:36:13;;;;;;;2.85;0.47;;;13.40;99.90;;;;;;4130563;28;20468;-53
2024/03/17 05:38:16;;;;;;;0.65;0.32;;;13.40;99.90;;;;;;4130797;28;20387;-53
2024/03/17 05:40:17;;;;;;;0.80;0.40;;;13.40;99.90;;;;;;4114459;28;20073;-52
2024/03/17 05:42:19;;;;;;;0.50;0.50;;;13.40;99.90;;;;;;4130497;28;20046;-53
2024/03/17 05:44:20;;;;;;;0.85;0.35;;;13.40;99.90;;;;;;4130322;28;20042;-53
2024/03/17 05:46:21;;;;;;;1.55;0.90;;;13.40;99.90;;;;;;4130288;28;20351;-53
2024/03/17 05:48:24;;;;;;;1.25;0.40;;;13.40;99.90;;;;;;4130748;28;20081;-54
2024/03/17 05:50:27;;;;;;;1.30;0.70;;;13.40;99.90;;;;;;4130873;28;20059;-52
2024/03/17 05:52:28;;;;;;;2.25;0.70;;;13.30;99.90;;;;;;4131470;28;20050;-51
2024/03/17 05:54:30;;;;;;;0.45;0.28;;;13.30;99.90;;;;;;4131509;28;20433;-53
2024/03/17 05:56:31;;;;;;;1.50;0.50;;;13.30;99.90;;;;;;4131037;28;20042;-60
2024/03/17 05:58:34;;;;;;;1.42;0.85;;;13.30;99.90;;;;;;4130948;28;20050;-52
2024/03/17 06:00:35;;;;;;;1.48;0.95;;;13.40;99.90;;;;;;4132713;28;20437;-53
2024/03/17 06:02:37;;;;;;;4.07;1.52;;;13.40;99.90;;;;;;4132965;28;20051;-52
2024/03/17 06:04:38;;;;;;;1.13;0.57;;;13.40;99.90;;;;;;4115279;28;20105;-55
2024/03/17 06:06:39;;;;;;;0.90;0.40;;;13.40;99.90;;;;;;4130582;28;20130;-53
2024/03/17 06:08:40;;;;;;;1.80;1.58;;;13.40;99.90;;;;;;4130229;28;20045;-53
2024/03/17 06:10:46;;;;;;;1.55;0.55;;;13.30;99.90;;;;;;4130529;28;20050;-53
2024/03/17 06:12:47;;;;;;;0.47;0.30;;;13.40;99.90;;;;;;4129979;28;20478;-53
2024/03/17 06:14:49;;;;;;;3.60;1.50;;;13.40;99.90;;;;;;4130661;28;20085;-53
2024/03/17 06:16:50;;;;;;;0.98;0.85;;;13.40;99.90;;;;;;4130176;28;20453;-53
2024/03/17 06:18:51;;;;;;;0.65;0.32;;;13.40;99.90;;;;;;4130033;28;20061;-52
2024/03/17 06:20:52;;;;;;;0.95;0.20;;;13.40;99.90;;;;;;4130436;28;20050;-52
2024/03/17 06:22:54;;;;;;;1.10;0.43;;;13.30;99.90;;;;;;4130227;28;20046;-53
2024/03/17 06:24:55;;;;;;;0.82;0.40;;;13.30;99.90;;;;;;4130530;28;20116;-51
2024/03/17 06:26:57;;;;;;;0.52;0.40;;;13.30;99.90;;;;;;4130033;28;20051;-52
2024/03/17 06:28:58;;;;;;;1.92;0.45;;;13.30;99.90;;;;;;4130392;28;20054;-52
2024/03/17 06:31:01;;;;;;;0.60;0.38;;;13.30;99.90;;;;;;4132262;28;20050;-52
2024/03/17 06:33:03;;;;;;;1.42;0.75;;;13.30;99.90;;;;;;4132567;28;20057;-54
2024/03/17 06:35:05;;;;;;;0.40;0.40;;;13.30;99.90;;;;;;4131459;28;20097;-53
2024/03/17 06:37:08;;;;;;;0.45;0.30;;;13.20;99.90;;;;;;4130862;28;20506;-53
2024/03/17 06:39:09;;;;;;;0.80;0.43;;;13.30;99.90;;;;;;4130224;28;20046;-52
2024/03/17 06:41:10;;;;;;;0.90;0.40;;;13.20;99.90;;;;;;4130015;28;20170;-52
2024/03/17 06:43:13;;;;;;;2.55;0.40;;;13.20;99.90;;;;;;4130158;28;20089;-53
2024/03/17 06:45:14;;;;;;;0.65;0.30;;;13.10;99.90;;;;;;4132547;28;20042;-53
2024/03/17 06:47:15;;;;;;;1.13;0.70;;;13.10;99.90;;;;;;4131746;28;20046;-53
2024/03/17 06:49:16;;;;;;;2.00;0.77;;;13.10;99.90;;;;;;4133411;28;20038;-52
2024/03/17 06:51:17;;;;;;;0.70;0.45;;;13.10;99.90;;;;;;4133992;28;20050;-54
2024/03/17 06:53:19;;;;;;;2.15;1.23;;;13.20;99.90;;;;;;4136132;28;20042;-53
2024/03/17 06:55:24;;;;;;;2.20;0.70;;;13.10;99.90;;;;;;4135824;28;20057;-60
2024/03/17 06:57:25;;;;;;;0.93;0.70;;;13.20;99.90;;;;;;4135169;28;20501;-53
2024/03/17 06:59:28;;;;;;;1.23;0.77;;;13.20;99.90;;;;;;4133032;28;20058;-52
2024/03/17 07:01:29;;;;;;;1.80;0.75;;;13.20;99.90;;;;;;4132964;28;20057;-53
2024/03/17 07:03:31;;;;;;;2.10;0.85;;;13.10;99.90;;;;;;4132981;28;20046;-54
2024/03/17 07:05:33;;;;;;;2.80;0.70;;;13.20;99.90;;;;;;4132880;28;20046;-53
2024/03/17 07:07:34;;;;;;;2.47;0.65;;;13.20;99.90;;;;;;4132894;28;20378;-53
2024/03/17 07:09:35;;;;;;;2.25;1.38;;;13.20;99.90;;;;;;4132798;28;20116;-54
2024/03/17 07:11:37;;;;;;;3.45;0.68;;;13.10;99.90;;;;;;4132610;28;20390;-52
2024/03/17 07:13:39;;;;;;;0.73;0.45;;;13.10;99.90;;;;;;4134388;28;20510;-52
2024/03/17 07:15:46;;;;;;;1.15;0.75;;;13.10;99.90;;;;;;4134340;28;20449;-54
2024/03/17 07:17:50;;;;;;;1.33;0.45;;;13.10;99.90;;;;;;4133718;28;20057;-52
2024/03/17 07:19:51;;;;;;;2.25;0.57;;;13.10;99.90;;;;;;4133701;28;20055;-53
2024/03/17 07:21:54;;;;;;;2.45;1.15;;;13.10;99.90;;;;;;4133205;28;20062;-53
2024/03/17 07:23:57;;;;;;;0.52;0.50;;;13.20;99.90;;;;;;4133268;28;20054;-52
2024/03/17 07:26:02;;;;;;;1.02;0.40;;;13.10;99.90;;;;;;4133034;28;20552;-52
2024/03/17 07:28:04;;;;;;;1.20;0.50;;;13.10;99.90;;;;;;4132888;28;20054;-53
2024/03/17 07:30:07;;;;;;;0.55;0.55;;;13.10;99.90;;;;;;4132513;28;20092;-52
2024/03/17 07:32:10;;;;;;;1.10;0.65;;;13.10;99.90;;;;;;4132665;28;20058;-55
2024/03/17 07:34:11;;;;;;;0.40;0.30;;;13.20;99.90;;;;;;4133065;28;20137;-52
2024/03/17 07:36:12;;;;;;;0.73;0.40;;;13.20;99.90;;;;;;4132866;28;20104;-53
2024/03/17 07:38:14;;;;;;;0.73;0.73;;;13.10;99.90;;;;;;4132659;28;20050;-52
2024/03/17 07:40:16;;;;;;;1.60;0.70;;;13.00;99.90;;;;;;4131933;28;20149;-52
2024/03/17 07:42:17;;;;;;;0.88;0.50;;;13.00;99.90;;;;;;4132496;28;20050;-51
2024/03/17 07:44:18;;;;;;;1.13;0.50;;;13.10;99.90;;;;;;4132368;28;20137;-53
2024/03/17 07:46:19;;;;;;;1.33;0.88;;;13.10;99.90;;;;;;4133397;28;20042;-52
2024/03/17 07:48:23;;;;;;;0.88;0.20;;;13.20;99.90;;;;;;4134695;28;20410;-52
2024/03/17 07:50:24;;;;;;;0.67;0.30;;;13.10;99.90;;;;;;4132366;28;20055;-57
2024/03/17 07:52:26;;;;;;;0.85;0.75;;;13.10;99.90;;;;;;4132042;28;20093;-52
2024/03/17 07:54:27;;;;;;;0.65;0.43;;;13.10;99.90;;;;;;4131950;28;20043;-51
2024/03/17 07:56:29;;;;;;;2.67;0.88;;;13.10;99.90;;;;;;4131167;28;20108;-51
2024/03/17 07:58:34;;;;;;;0.88;0.77;;;13.10;99.90;;;;;;4132024;28;20061;-52
2024/03/17 08:00:37;;;;;;;2.78;1.25;;;13.00;99.90;;;;;;4132169;28;20474;-52
2024/03/17 08:02:39;;;;;;;3.60;0.88;;;13.10;99.90;;;;;;4131942;28;20054;-61
2024/03/17 08:04:42;;;;;;;0.50;0.35;;;13.10;99.90;;;;;;4132085;28;20100;-53
2024/03/17 08:06:44;;;;;;;0.80;0.55;;;13.10;99.90;;;;;;4132017;28;20054;-53
2024/03/17 08:08:45;;;;;;;2.40;1.00;;;13.10;99.90;;;;;;4131645;28;20073;-52
2024/03/17 08:10:48;;;;;;;1.58;1.00;;;13.10;99.90;;;;;;4131843;28;20125;-53
2024/03/17 08:12:50;;;;;;;1.13;0.90;;;13.20;99.90;;;;;;4131904;28;20047;-53
2024/03/17 08:14:51;;;;;;;0.93;0.65;;;13.30;99.90;;;;;;4131683;28;20070;-53
2024/03/17 08:16:52;;;;;;;1.33;0.75;;;13.30;99.90;;;;;;4131718;28;20054;-53
2024/03/17 08:18:53;;;;;;;0.50;0.43;;;13.30;99.90;;;;;;4131895;28;20046;-53
2024/03/17 08:20:56;;;;;;;1.85;0.90;;;13.40;99.90;;;;;;4131977;28;20111;-53
2024/03/17 08:22:57;;;;;;;1.30;0.45;;;13.40;99.90;;;;;;4131293;28;20122;-53
2024/03/17 08:24:58;;;;;;;6.32;0.73;;;13.40;99.90;;;;;;4131228;28;20058;-53
2024/03/17 08:26:59;;;;;;;0.98;0.43;;;13.40;99.90;;;;;;4131679;28;20046;-54
2024/03/17 08:29:00;;;;;;;0.68;0.65;;;13.30;99.90;;;;;;4131556;28;20065;-54
2024/03/17 08:31:03;;;;;;;1.48;1.13;;;13.30;99.90;;;;;;4131494;28;20046;-52
2024/03/17 08:33:06;;;;;;;0.30;0.30;;;13.40;99.90;;;;;;4131603;28;20043;-52
2024/03/17 08:35:08;;;;;;;0.43;0.43;;;13.30;99.90;;;;;;4131050;28;20051;-53
2024/03/17 08:37:11;;;;;;;0.28;0.22;;;13.20;99.90;;;;;;4114829;28;20051;-53
2024/03/17 08:39:13;;;;;;;1.15;1.05;;;13.30;99.90;;;;;;4131320;28;20066;-53
2024/03/17 08:41:15;;;;;;;2.20;0.80;;;13.30;99.90;;;;;;4133407;28;20042;-53
2024/03/17 08:43:16;;;;;;;5.22;0.70;;;13.40;99.90;;;;;;4134201;28;20057;-52
2024/03/17 08:45:17;;;;;;;0.70;0.30;;;13.40;99.90;;;;;;4134052;28;20073;-55
2024/03/17 08:47:18;;;;;;;2.65;0.60;;;13.40;99.90;;;;;;4116627;28;20078;-55
2024/03/17 08:49:19;;;;;;;1.80;0.47;;;13.40;99.90;;;;;;4131827;28;20509;-57
2024/03/17 08:51:21;;;;;;;0.30;0.30;;;13.40;99.90;;;;;;4133908;28;20073;-52
2024/03/17 08:53:26;;;;;;;0.85;0.65;;;13.40;99.90;;;;;;4132986;28;20062;-52
2024/03/17 08:55:27;;;;;;;5.18;0.45;;;13.50;99.90;;;;;;4131241;28;20060;-54
2024/03/17 08:57:28;;;;;;;1.77;0.45;;;13.50;99.90;;;;;;4131209;28;20053;-53
2024/03/17 08:59:29;;;;;;;1.38;0.57;;;13.40;99.90;;;;;;4131388;28;20046;-52
2024/03/17 09:01:31;;;;;;;0.75;0.47;;;13.40;99.90;;;;;;4131483;28;20042;-52
2024/03/17 09:03:33;;;;;;;1.33;0.40;;;13.40;99.90;;;;;;4131971;28;20057;-54
2024/03/17 09:05:34;;;;;;;0.90;0.77;;;13.40;99.90;;;;;;4132550;28;20058;-53
2024/03/17 09:07:35;;;;;;;2.72;0.50;;;13.40;99.90;;;;;;4131567;28;20069;-52
2024/03/17 09:09:38;;;;;;;3.60;1.10;;;13.50;99.90;;;;;;4115113;28;20506;-52
2024/03/17 09:11:39;;;;;;;0.55;0.55;;;13.50;99.90;;;;;;4130858;28;20049;-52
2024/03/17 09:13:40;;;;;;;2.65;0.60;;;13.50;99.90;;;;;;4130838;28;20043;-53
2024/03/17 09:15:49;;;;;;;3.00;0.77;;;13.60;99.90;;;;;;4131035;28;20117;-52
2024/03/17 09:17:51;;;;;;;0.50;0.35;;;13.60;99.90;;;;;;4130680;28;20038;-53
2024/03/17 09:19:52;;;;;;;0.40;0.40;;;13.60;99.90;;;;;;4130897;28;20050;-52
2024/03/17 09:21:54;;;;;;;0.95;0.40;;;13.60;99.90;;;;;;4130486;28;20050;-52
2024/03/17 09:23:55;;;;;;;1.17;0.75;;;13.60;99.90;;;;;;4130757;28;20544;-52
2024/03/17 09:25:58;;;;;;;2.28;1.10;;;13.70;99.90;;;;;;4130664;28;20501;-51
2024/03/17 09:27:59;;;;;;;3.10;0.60;;;13.70;99.90;;;;;;4114665;28;20502;-52
2024/03/17 09:30:00;;;;;;;2.53;1.10;;;13.70;99.90;;;;;;4130748;28;20069;-53
2024/03/17 09:32:02;;;;;;;2.20;1.15;;;13.70;99.90;;;;;;4114932;28;20047;-53
2024/03/17 09:34:04;;;;;;;1.33;1.20;;;13.80;99.90;;;;;;4132095;28;20418;-52
2024/03/17 09:36:07;;;;;;;0.68;0.45;;;13.80;99.90;;;;;;4130589;28;20046;-53
2024/03/17 09:38:08;;;;;;;1.95;0.77;;;13.90;99.90;;;;;;4114547;28;20051;-53
2024/03/17 09:40:14;;;;;;;0.63;0.40;;;13.80;99.90;;;;;;4130517;28;20050;-53
2024/03/17 09:42:21;;;;;;;2.28;0.52;;;13.80;99.90;;;;;;4130688;28;20057;-53
2024/03/17 09:44:22;;;;;;;0.50;0.30;;;13.90;99.90;;;;;;4130498;28;20046;-52
2024/03/17 09:46:25;;;;;;;2.60;0.55;;;13.90;99.90;;;;;;4130572;28;20560;-54
2024/03/17 09:48:30;;;;;;;4.00;0.40;;;14.00;99.90;;;;;;4130601;28;20047;-53
2024/03/17 09:50:34;;;;;;;1.95;1.20;;;14.10;99.90;;;;;;4129963;28;20054;-53
2024/03/17 09:52:35;;;;;;;2.47;1.33;;;14.10;99.90;;;;;;4130400;28;20581;-53
2024/03/17 09:54:39;;;;;;;4.28;1.02;;;14.10;99.90;;;;;;4130630;28;20046;-55
2024/03/17 09:56:40;;;;;;;0.90;0.47;;;14.20;99.90;;;;;;4130264;28;20054;-53
2024/03/17 09:58:43;;;;;;;2.97;0.70;;;14.20;99.90;;;;;;4130261;28;20060;-53
2024/03/17 10:00:44;;;;;;;0.88;0.80;;;14.20;99.90;;;;;;4130872;28;20104;-53
2024/03/17 10:02:46;;;;;;;0.50;0.50;;;14.20;99.90;;;;;;4130764;28;20050;-53
2024/03/17 10:04:48;;;;;;;3.80;0.77;;;14.10;99.90;;;;;;4131024;28;20042;-53
2024/03/17 10:06:50;;;;;;;1.90;0.82;;;14.20;99.90;;;;;;4132995;28;20379;-59
2024/03/17 10:08:53;;;;;;;0.98;0.80;;;14.20;99.90;;;;;;4116125;28;20426;-53
2024/03/17 10:10:54;;;;;;;1.92;0.90;;;14.20;99.90;;;;;;4132835;28;20542;-55
2024/03/17 10:12:55;;;;;;;0.40;0.40;;;14.20;99.90;;;;;;4130488;28;20054;-53
2024/03/17 10:15:01;;;;;;;2.65;1.05;;;14.30;99.90;;;;;;4130946;28;20481;-53
2024/03/17 10:17:03;;;;;;;0.93;0.70;;;14.30;99.90;;;;;;4130514;28;20046;-53
2024/03/17 10:19:14;;;;;;;0.60;0.38;;;14.20;99.90;;;;;;4130621;28;20080;-57
2024/03/17 10:21:25;;;;;;;0.60;0.50;;;14.30;99.90;;;;;;4117667;28;20043;-53
2024/03/17 10:23:28;;;;;;;2.47;0.93;;;14.30;99.90;;;;;;4133495;28;20047;-53
2024/03/17 10:25:29;;;;;;;0.55;0.30;;;14.20;99.90;;;;;;4133429;28;20052;-52
2024/03/17 10:27:31;;;;;;;0.73;0.40;;;14.20;99.90;;;;;;4129766;28;20482;-53
2024/03/17 10:29:35;;;;;;;0.65;0.40;;;14.20;99.90;;;;;;4133317;28;20046;-53
2024/03/17 10:31:40;;;;;;;1.55;1.00;;;14.30;99.90;;;;;;4117054;28;20047;-53
2024/03/17 10:33:43;;;;;;;0.70;0.57;;;14.30;99.90;;;;;;4117674;28;20038;-53
2024/03/17 10:35:44;;;;;;;1.45;0.30;;;14.20;99.90;;;;;;4121285;28;20502;-53
2024/03/17 10:37:54;;;;;;;1.48;0.98;;;14.20;99.90;;;;;;4117415;28;20046;-53
2024/03/17 10:39:59;;;;;;;2.20;0.75;;;14.10;99.90;;;;;;4116798;28;20051;-53